Time;durP1;ratioP1;P1;durP2;ratioP2;P2;SDS_P1;SDS_P2;PMS_P1;PMS_P2;Temp;Humidity;BMP_temperature;BMP_pressure;BME280_temperature;BME280_humidity;BME280_pressure;Samples;Min_cycle;Max_cycle;Signal;HPM_P1;HPM_P2
2021/08/21 00:00:28;;;;;;;11.73;9.17;;;;;;;;;;2129345;27;20443;-43
2021/08/21 00:01:29;;;;;;;11.80;8.90;;;;;;;;;;2127325;27;20057;-44
2021/08/21 00:02:31;;;;;;;11.80;8.80;;;;;;;;;;2129179;27;20187;-44
2021/08/21 00:03:32;;;;;;;13.18;9.68;;;;;;;;;;2130600;27;20568;-44
2021/08/21 00:04:37;;;;;;;12.30;9.00;;;;;;;;;;2128434;27;20122;-44
2021/08/21 00:05:38;;;;;;;13.13;9.02;;;;;;;;;;2130383;27;20126;-44
2021/08/21 00:06:39;;;;;;;12.13;9.63;;;;;;;;;;2131670;27;20130;-44
2021/08/21 00:07:40;;;;;;;13.47;9.23;;;;;;;;;;2132119;27;20047;-44
2021/08/21 00:08:41;;;;;;;16.55;9.57;;;;;;;;;;2129038;27;20043;-44
2021/08/21 00:09:43;;;;;;;11.37;8.70;;;;;;;;;;2132299;27;20091;-45
2021/08/21 00:10:44;;;;;;;11.60;8.23;;;;;;;;;;2132153;27;20548;-43
2021/08/21 00:11:45;;;;;;;14.60;9.37;;;;;;;;;;2128885;27;20104;-44
2021/08/21 00:12:46;;;;;;;13.32;9.27;;;;;;;;;;2132160;27;20737;-44
2021/08/21 00:13:47;;;;;;;11.60;8.77;;;;;;;;;;2132205;27;20042;-44
2021/08/21 00:14:48;;;;;;;11.68;9.35;;;;;;;;;;2129102;27;20082;-45
2021/08/21 00:15:49;;;;;;;12.23;10.10;;;;;;;;;;2129273;27;20055;-43
2021/08/21 00:16:50;;;;;;;13.10;8.90;;;;;;;;;;2131724;27;20074;-43
2021/08/21 00:17:51;;;;;;;13.80;9.00;;;;;;;;;;2130193;27;20034;-43
2021/08/21 00:18:53;;;;;;;13.65;10.15;;;;;;;;;;2132206;27;20476;-44
2021/08/21 00:19:54;;;;;;;13.52;9.45;;;;;;;;;;2131903;27;20600;-43
2021/08/21 00:20:56;;;;;;;11.80;8.70;;;;;;;;;;2129439;27;20145;-45
2021/08/21 00:21:57;;;;;;;10.40;9.02;;;;;;;;;;2132195;27;20047;-44
2021/08/21 00:22:58;;;;;;;12.40;9.55;;;;;;;;;;2130643;27;20102;-43
2021/08/21 00:23:59;;;;;;;13.20;9.13;;;;;;;;;;2130103;27;20524;-44
2021/08/21 00:25:00;;;;;;;13.30;10.23;;;;;;;;;;2132101;27;20038;-43
2021/08/21 00:26:01;;;;;;;10.47;8.50;;;;;;;;;;2129991;27;20566;-43
2021/08/21 00:27:02;;;;;;;12.25;9.45;;;;;;;;;;2128864;27;20049;-43
2021/08/21 00:28:03;;;;;;;14.23;10.07;;;;;;;;;;2129519;27;20050;-44
2021/08/21 00:29:04;;;;;;;13.00;8.90;;;;;;;;;;2130025;27;20431;-44
2021/08/21 00:30:06;;;;;;;12.88;9.63;;;;;;;;;;2129408;27;20042;-43
2021/08/21 00:31:07;;;;;;;13.65;9.60;;;;;;;;;;2132071;27;20508;-44
2021/08/21 00:32:08;;;;;;;11.25;8.88;;;;;;;;;;2129788;27;20051;-43
2021/08/21 00:33:09;;;;;;;11.57;9.03;;;;;;;;;;2131149;27;20085;-43
2021/08/21 00:34:10;;;;;;;12.88;9.75;;;;;;;;;;2132239;27;20050;-43
2021/08/21 00:35:11;;;;;;;11.80;9.73;;;;;;;;;;2130045;27;20367;-44
2021/08/21 00:36:13;;;;;;;12.50;9.70;;;;;;;;;;2130937;27;20078;-43
2021/08/21 00:37:15;;;;;;;13.35;9.82;;;;;;;;;;2131923;27;20042;-43
2021/08/21 00:38:16;;;;;;;12.18;9.68;;;;;;;;;;2130046;27;20099;-43
2021/08/21 00:39:17;;;;;;;13.53;10.00;;;;;;;;;;2131126;27;20099;-43
2021/08/21 00:40:18;;;;;;;12.68;9.90;;;;;;;;;;2132037;27;20057;-43
2021/08/21 00:41:19;;;;;;;12.68;9.77;;;;;;;;;;2128666;27;20186;-43
2021/08/21 00:42:20;;;;;;;12.65;9.27;;;;;;;;;;2131654;27;20134;-43
2021/08/21 00:43:21;;;;;;;15.87;10.23;;;;;;;;;;2132127;27;20058;-44
2021/08/21 00:44:23;;;;;;;14.55;9.75;;;;;;;;;;2128465;27;20047;-43
2021/08/21 00:45:24;;;;;;;12.77;9.45;;;;;;;;;;2129328;27;20126;-43
2021/08/21 00:46:25;;;;;;;11.15;8.80;;;;;;;;;;2132119;27;20115;-45
2021/08/21 00:47:26;;;;;;;11.87;8.90;;;;;;;;;;2127723;27;20411;-43
2021/08/21 00:48:27;;;;;;;9.90;8.43;;;;;;;;;;2132048;27;20767;-44
2021/08/21 00:49:28;;;;;;;12.03;9.83;;;;;;;;;;2131493;27;20072;-44
2021/08/21 00:50:29;;;;;;;14.48;9.07;;;;;;;;;;2127729;27;20129;-44
2021/08/21 00:51:31;;;;;;;10.45;9.10;;;;;;;;;;2132003;27;20133;-44
2021/08/21 00:52:34;;;;;;;11.05;8.93;;;;;;;;;;2130140;27;20046;-43
2021/08/21 00:53:35;;;;;;;12.70;8.70;;;;;;;;;;2129124;27;20046;-44
2021/08/21 00:54:36;;;;;;;11.80;9.47;;;;;;;;;;2131977;27;20050;-44
2021/08/21 00:55:37;;;;;;;13.98;8.85;;;;;;;;;;2130436;27;20039;-43
2021/08/21 00:56:38;;;;;;;10.47;9.10;;;;;;;;;;2129728;27;20039;-44
2021/08/21 00:57:39;;;;;;;10.00;8.65;;;;;;;;;;2131925;27;20129;-44
2021/08/21 00:58:40;;;;;;;11.50;8.43;;;;;;;;;;2129941;27;20168;-44
2021/08/21 00:59:42;;;;;;;11.68;9.38;;;;;;;;;;2131646;27;20330;-44
2021/08/21 01:00:43;;;;;;;11.73;9.15;;;;;;;;;;2129926;27;20117;-43
2021/08/21 01:01:44;;;;;;;11.80;9.23;;;;;;;;;;2127130;27;20134;-44
2021/08/21 01:02:45;;;;;;;11.63;8.90;;;;;;;;;;2130793;27;20057;-44
2021/08/21 01:03:47;;;;;;;10.73;8.73;;;;;;;;;;2132009;27;20046;-44
2021/08/21 01:04:50;;;;;;;12.27;9.32;;;;;;;;;;2129447;27;20156;-43
2021/08/21 01:05:51;;;;;;;10.43;8.50;;;;;;;;;;2131689;27;20142;-43
2021/08/21 01:06:53;;;;;;;11.30;9.20;;;;;;;;;;2131937;27;20122;-43
2021/08/21 01:07:54;;;;;;;11.13;8.77;;;;;;;;;;2130724;27;20042;-43
2021/08/21 01:08:56;;;;;;;;;;;;;;;;;;2131299;27;20043;-43
2021/08/21 01:09:59;;;;;;;10.35;9.10;;;;;;;;;;2131792;27;19926;-43
2021/08/21 01:10:59;;;;;;;10.60;8.65;;;;;;;;;;2128398;27;20488;-45
2021/08/21 01:12:01;;;;;;;13.32;9.15;;;;;;;;;;2131729;27;20046;-44
2021/08/21 01:13:02;;;;;;;18.40;9.30;;;;;;;;;;2131864;27;20042;-43
2021/08/21 01:14:03;;;;;;;11.25;9.00;;;;;;;;;;2127458;27;20061;-44
2021/08/21 01:15:05;;;;;;;16.98;8.85;;;;;;;;;;2131894;27;20133;-43
2021/08/21 01:16:06;;;;;;;11.20;8.82;;;;;;;;;;2131669;27;20519;-43
2021/08/21 01:17:09;;;;;;;12.07;9.43;;;;;;;;;;2126502;27;20058;-43
2021/08/21 01:18:10;;;;;;;11.85;8.45;;;;;;;;;;2131775;27;20508;-43
2021/08/21 01:19:12;;;;;;;9.85;8.80;;;;;;;;;;2131362;27;20455;-43
2021/08/21 01:20:13;;;;;;;12.32;9.15;;;;;;;;;;2128027;27;20057;-44
2021/08/21 01:21:14;;;;;;;11.35;8.70;;;;;;;;;;2131781;27;20129;-44
2021/08/21 01:22:17;;;;;;;9.70;8.57;;;;;;;;;;2130782;27;20479;-44
2021/08/21 01:23:18;;;;;;;10.75;9.18;;;;;;;;;;2129556;27;20403;-44
2021/08/21 01:24:19;;;;;;;12.50;8.77;;;;;;;;;;2131803;27;20058;-44
2021/08/21 01:25:24;;;;;;;10.25;8.55;;;;;;;;;;2129479;27;20043;-44
2021/08/21 01:26:25;;;;;;;10.60;8.85;;;;;;;;;;2131193;27;20528;-44
2021/08/21 01:27:28;;;;;;;10.80;8.90;;;;;;;;;;2131636;27;20399;-44
2021/08/21 01:28:29;;;;;;;9.02;8.10;;;;;;;;;;2128972;27;20082;-44
2021/08/21 01:29:30;;;;;;;12.50;8.88;;;;;;;;;;2130733;27;20057;-43
2021/08/21 01:30:31;;;;;;;11.38;8.48;;;;;;;;;;2131707;27;20663;-45
2021/08/21 01:31:32;;;;;;;12.07;9.10;;;;;;;;;;2129380;27;20066;-43
2021/08/21 01:32:33;;;;;;;12.02;8.93;;;;;;;;;;2129028;27;20046;-44
2021/08/21 01:33:35;;;;;;;12.73;9.33;;;;;;;;;;2131883;27;20054;-45
2021/08/21 01:34:36;;;;;;;;;;;;;;;;;;2129663;27;20043;-43
2021/08/21 01:35:37;;;;;;;12.68;8.82;;;;;;;;;;2130733;27;19922;-44
2021/08/21 01:36:39;;;;;;;15.32;9.77;;;;;;;;;;2131643;27;20044;-44
2021/08/21 01:37:40;;;;;;;14.30;9.65;;;;;;;;;;2129119;27;20096;-43
2021/08/21 01:38:56;;;;;;;12.48;9.20;;;;;;;;;;2131262;27;20499;-44
2021/08/21 01:39:57;;;;;;;20.63;10.23;;;;;;;;;;2127835;27;20514;-45
2021/08/21 01:40:58;;;;;;;12.60;9.43;;;;;;;;;;2128345;27;20099;-44
2021/08/21 01:41:59;;;;;;;10.67;8.80;;;;;;;;;;2131537;27;20491;-44
2021/08/21 01:43:01;;;;;;;11.77;9.82;;;;;;;;;;2130623;27;20451;-43
2021/08/21 01:44:06;;;;;;;11.30;9.23;;;;;;;;;;2129194;27;20039;-44
2021/08/21 01:45:11;;;;;;;12.02;9.15;;;;;;;;;;2129172;27;20137;-44
2021/08/21 01:46:12;;;;;;;12.88;9.13;;;;;;;;;;2129899;27;20070;-44
2021/08/21 01:47:13;;;;;;;12.27;10.07;;;;;;;;;;2130277;27;20081;-43
2021/08/21 01:48:15;;;;;;;12.38;9.68;;;;;;;;;;2131809;27;20057;-44
2021/08/21 01:49:16;;;;;;;10.48;8.77;;;;;;;;;;2128852;27;20180;-43
2021/08/21 01:50:18;;;;;;;10.52;8.93;;;;;;;;;;2130298;27;20039;-43
2021/08/21 01:51:20;;;;;;;12.52;9.07;;;;;;;;;;2131888;27;20050;-44
2021/08/21 01:52:21;;;;;;;11.82;9.98;;;;;;;;;;2128010;27;20081;-44
2021/08/21 01:53:22;;;;;;;11.32;9.20;;;;;;;;;;2130350;27;20483;-43
2021/08/21 01:54:24;;;;;;;15.07;10.37;;;;;;;;;;2131697;27;20050;-43
2021/08/21 01:55:25;;;;;;;12.10;9.52;;;;;;;;;;2128182;27;20133;-43
2021/08/21 01:56:25;;;;;;;12.13;9.50;;;;;;;;;;2131058;27;20223;-43
2021/08/21 01:57:27;;;;;;;9.80;8.80;;;;;;;;;;2125533;27;20484;-43
2021/08/21 01:58:28;;;;;;;10.55;9.23;;;;;;;;;;2126727;27;20043;-43
2021/08/21 01:59:30;;;;;;;11.77;9.20;;;;;;;;;;2123078;28;20095;-43
2021/08/21 02:00:31;;;;;;;10.00;8.40;;;;;;;;;;2123151;28;20478;-43
2021/08/21 02:01:32;;;;;;;10.52;8.40;;;;;;;;;;2126400;27;20042;-44
2021/08/21 02:02:33;;;;;;;11.00;9.00;;;;;;;;;;2131662;27;20133;-43
2021/08/21 02:03:35;;;;;;;10.90;9.05;;;;;;;;;;2131695;27;20038;-43
2021/08/21 02:04:36;;;;;;;11.63;9.00;;;;;;;;;;2126246;27;20131;-43
2021/08/21 02:05:37;;;;;;;17.17;8.98;;;;;;;;;;2131630;27;20061;-43
2021/08/21 02:06:38;;;;;;;14.45;8.95;;;;;;;;;;2131143;27;20130;-44
2021/08/21 02:07:39;;;;;;;10.50;9.40;;;;;;;;;;2127346;27;20043;-43
2021/08/21 02:08:40;;;;;;;11.45;8.95;;;;;;;;;;2131810;27;20039;-43
2021/08/21 02:09:41;;;;;;;10.30;8.63;;;;;;;;;;2131093;27;20145;-43
2021/08/21 02:10:42;;;;;;;10.20;8.63;;;;;;;;;;2125261;27;20131;-43
2021/08/21 02:11:43;;;;;;;9.75;8.20;;;;;;;;;;2123139;28;20061;-43
2021/08/21 02:12:44;;;;;;;10.90;8.20;;;;;;;;;;2123852;27;20047;-43
2021/08/21 02:13:46;;;;;;;10.63;8.75;;;;;;;;;;2128625;27;20121;-44
2021/08/21 02:14:47;;;;;;;11.15;8.13;;;;;;;;;;2131717;27;20052;-43
2021/08/21 02:15:48;;;;;;;10.15;7.93;;;;;;;;;;2130764;27;20509;-43
2021/08/21 02:16:50;;;;;;;12.67;9.13;;;;;;;;;;2128923;27;20047;-44
2021/08/21 02:17:51;;;;;;;;;;;;;;;;;;2132057;27;20049;-43
2021/08/21 02:18:52;;;;;;;10.90;8.38;;;;;;;;;;2129440;27;19919;-43
2021/08/21 02:19:53;;;;;;;13.00;9.00;;;;;;;;;;2129456;27;20043;-43
2021/08/21 02:20:54;;;;;;;11.47;8.53;;;;;;;;;;2131605;27;20088;-43
2021/08/21 02:21:56;;;;;;;11.38;8.52;;;;;;;;;;2128569;27;20035;-43
2021/08/21 02:22:58;;;;;;;14.10;8.60;;;;;;;;;;2128969;27;20492;-44
2021/08/21 02:23:58;;;;;;;11.30;8.88;;;;;;;;;;2131564;27;20122;-44
2021/08/21 02:25:00;;;;;;;11.33;9.23;;;;;;;;;;2128421;27;20051;-43
2021/08/21 02:26:00;;;;;;;12.50;8.52;;;;;;;;;;2130181;27;20137;-43
2021/08/21 02:27:03;;;;;;;12.67;8.93;;;;;;;;;;2131637;27;20436;-43
2021/08/21 02:28:07;;;;;;;10.82;8.43;;;;;;;;;;2127286;27;20488;-43
2021/08/21 02:29:09;;;;;;;10.73;8.73;;;;;;;;;;2131152;27;20507;-43
2021/08/21 02:30:11;;;;;;;14.05;8.70;;;;;;;;;;2131591;27;20046;-43
2021/08/21 02:31:12;;;;;;;11.57;8.95;;;;;;;;;;2127016;27;20119;-43
2021/08/21 02:32:12;;;;;;;11.88;9.32;;;;;;;;;;2131540;27;20069;-44
2021/08/21 02:33:14;;;;;;;11.00;9.17;;;;;;;;;;2131491;27;20046;-43
2021/08/21 02:34:15;;;;;;;10.35;8.90;;;;;;;;;;2127042;27;20045;-43
2021/08/21 02:35:16;;;;;;;10.88;9.45;;;;;;;;;;2131480;27;20395;-44
2021/08/21 02:36:17;;;;;;;11.10;9.27;;;;;;;;;;2131076;27;20051;-43
2021/08/21 02:37:19;;;;;;;11.93;9.23;;;;;;;;;;2125974;27;20054;-44
2021/08/21 02:38:22;;;;;;;11.10;8.70;;;;;;;;;;2123000;28;20051;-43
2021/08/21 02:39:23;;;;;;;12.77;9.13;;;;;;;;;;2123753;27;20312;-43
2021/08/21 02:40:24;;;;;;;12.80;9.43;;;;;;;;;;2127902;27;20464;-44
2021/08/21 02:41:25;;;;;;;14.75;9.93;;;;;;;;;;2131476;27;20134;-43
2021/08/21 02:42:26;;;;;;;11.87;9.27;;;;;;;;;;2129747;27;20475;-44
2021/08/21 02:43:27;;;;;;;11.77;9.30;;;;;;;;;;2129708;27;20133;-43
2021/08/21 02:44:28;;;;;;;11.60;8.93;;;;;;;;;;2131337;27;20050;-43
2021/08/21 02:45:30;;;;;;;14.95;9.57;;;;;;;;;;2129579;27;20054;-43
2021/08/21 02:46:31;;;;;;;11.40;9.18;;;;;;;;;;2128703;27;20043;-43
2021/08/21 02:47:32;;;;;;;10.18;8.40;;;;;;;;;;2131443;27;20080;-43
2021/08/21 02:48:33;;;;;;;10.50;8.90;;;;;;;;;;2129115;27;20054;-43
2021/08/21 02:49:34;;;;;;;11.15;9.23;;;;;;;;;;2129260;27;20046;-43
2021/08/21 02:50:35;;;;;;;12.30;9.52;;;;;;;;;;2131442;27;20125;-43
2021/08/21 02:51:36;;;;;;;14.82;9.60;;;;;;;;;;2128223;27;20047;-43
2021/08/21 02:52:37;;;;;;;11.25;9.60;;;;;;;;;;2127478;27;20039;-43
2021/08/21 02:53:38;;;;;;;10.60;8.68;;;;;;;;;;2125642;27;20491;-43
2021/08/21 02:54:39;;;;;;;11.70;8.95;;;;;;;;;;2126109;27;20633;-44
2021/08/21 02:55:40;;;;;;;13.05;9.75;;;;;;;;;;2130194;27;20070;-44
2021/08/21 02:56:41;;;;;;;12.52;10.30;;;;;;;;;;2131285;27;20057;-43
2021/08/21 02:57:42;;;;;;;11.03;9.60;;;;;;;;;;2128730;27;20039;-43
2021/08/21 02:58:43;;;;;;;11.25;9.82;;;;;;;;;;2130413;27;20141;-43
2021/08/21 02:59:45;;;;;;;13.43;9.73;;;;;;;;;;2131355;27;20087;-44
2021/08/21 03:00:46;;;;;;;13.52;10.02;;;;;;;;;;2126954;27;20466;-43
2021/08/21 03:01:47;;;;;;;13.70;9.38;;;;;;;;;;2122608;28;20535;-43
2021/08/21 03:02:48;;;;;;;14.63;10.80;;;;;;;;;;2122737;28;20086;-43
2021/08/21 03:03:49;;;;;;;11.60;9.35;;;;;;;;;;2125863;27;20055;-43
2021/08/21 03:04:52;;;;;;;17.63;10.33;;;;;;;;;;2131229;27;20472;-43
2021/08/21 03:05:53;;;;;;;13.38;10.50;;;;;;;;;;2131390;27;20121;-43
2021/08/21 03:06:54;;;;;;;13.80;10.33;;;;;;;;;;2125726;27;20072;-43
2021/08/21 03:07:55;;;;;;;12.50;9.73;;;;;;;;;;2131309;27;20137;-43
2021/08/21 03:08:57;;;;;;;12.68;9.65;;;;;;;;;;2130874;27;20095;-44
2021/08/21 03:09:58;;;;;;;11.25;9.63;;;;;;;;;;2126978;27;20531;-43
2021/08/21 03:10:59;;;;;;;13.35;9.10;;;;;;;;;;2122299;28;20480;-43
2021/08/21 03:12:00;;;;;;;13.53;9.83;;;;;;;;;;2123371;27;20043;-43
2021/08/21 03:13:01;;;;;;;11.13;9.40;;;;;;;;;;2127424;27;20050;-44
2021/08/21 03:14:02;;;;;;;12.17;9.50;;;;;;;;;;2131383;27;20479;-43
2021/08/21 03:15:04;;;;;;;10.93;8.65;;;;;;;;;;2129743;27;20619;-44
2021/08/21 03:16:05;;;;;;;13.55;8.52;;;;;;;;;;2128323;27;20118;-43
2021/08/21 03:17:10;;;;;;;11.55;9.27;;;;;;;;;;2131110;27;20043;-43
2021/08/21 03:18:11;;;;;;;15.68;9.73;;;;;;;;;;2129134;27;20074;-43
2021/08/21 03:19:12;;;;;;;12.93;10.02;;;;;;;;;;2127739;27;20050;-43
2021/08/21 03:20:13;;;;;;;11.87;9.83;;;;;;;;;;2131191;27;20061;-44
2021/08/21 03:21:15;;;;;;;12.32;8.93;;;;;;;;;;2128482;27;20130;-44
2021/08/21 03:22:16;;;;;;;11.80;9.38;;;;;;;;;;2129522;27;20046;-43
2021/08/21 03:23:17;;;;;;;13.05;9.30;;;;;;;;;;2131223;27;20047;-44
2021/08/21 03:24:18;;;;;;;14.07;9.63;;;;;;;;;;2127997;27;20397;-44
2021/08/21 03:25:19;;;;;;;12.32;9.95;;;;;;;;;;2129885;27;20043;-43
2021/08/21 03:26:20;;;;;;;13.95;9.38;;;;;;;;;;2131309;27;20098;-44
2021/08/21 03:27:21;;;;;;;13.40;10.13;;;;;;;;;;2127874;27;20118;-45
2021/08/21 03:28:22;;;;;;;15.13;10.13;;;;;;;;;;2129734;27;20134;-45
2021/08/21 03:29:23;;;;;;;13.95;9.85;;;;;;;;;;2131025;27;20046;-44
2021/08/21 03:30:25;;;;;;;14.93;10.17;;;;;;;;;;2127119;27;20201;-44
2021/08/21 03:31:25;;;;;;;;;;;;;;;;;;2131294;27;20073;-43
2021/08/21 03:32:27;;;;;;;11.27;9.27;;;;;;;;;;2130934;27;19930;-43
2021/08/21 03:33:28;;;;;;;;;;;;;;;;;;2126970;27;20135;-43
2021/08/21 03:34:29;;;;;;;12.18;9.82;;;;;;;;;;2131119;27;20340;-43
2021/08/21 03:35:30;;;;;;;13.50;10.07;;;;;;;;;;2131163;27;20134;-44
2021/08/21 03:36:32;;;;;;;11.88;9.85;;;;;;;;;;2126292;27;20398;-43
2021/08/21 03:37:33;;;;;;;13.27;9.45;;;;;;;;;;2130950;27;20072;-44
2021/08/21 03:38:34;;;;;;;12.87;9.83;;;;;;;;;;2130562;27;20126;-43
2021/08/21 03:39:35;;;;;;;11.73;9.52;;;;;;;;;;2126664;27;20534;-44
2021/08/21 03:40:36;;;;;;;11.77;10.13;;;;;;;;;;2122225;28;20051;-44
2021/08/21 03:41:37;;;;;;;16.10;9.15;;;;;;;;;;2123206;27;20131;-43
2021/08/21 03:42:38;;;;;;;13.43;10.17;;;;;;;;;;2126315;27;20406;-44
2021/08/21 03:43:39;;;;;;;10.93;9.50;;;;;;;;;;2122580;28;20172;-43
2021/08/21 03:44:40;;;;;;;12.20;9.67;;;;;;;;;;2123267;27;20092;-43
2021/08/21 03:45:42;;;;;;;12.63;10.18;;;;;;;;;;2127669;27;20046;-43
2021/08/21 03:46:43;;;;;;;12.35;9.98;;;;;;;;;;2131046;27;20126;-44
2021/08/21 03:47:46;;;;;;;13.52;9.38;;;;;;;;;;2128944;27;20108;-43
2021/08/21 03:48:48;;;;;;;11.75;9.23;;;;;;;;;;2126140;27;20046;-43
2021/08/21 03:49:49;;;;;;;11.40;9.82;;;;;;;;;;2122326;27;20122;-44
2021/08/21 03:50:50;;;;;;;14.37;9.77;;;;;;;;;;2124302;27;20062;-44
2021/08/21 03:51:51;;;;;;;11.82;9.23;;;;;;;;;;2128542;27;20121;-44
2021/08/21 03:52:52;;;;;;;11.77;10.57;;;;;;;;;;2129611;27;20533;-43
2021/08/21 03:53:53;;;;;;;13.90;10.50;;;;;;;;;;2128160;27;20130;-44
2021/08/21 03:54:54;;;;;;;15.02;9.52;;;;;;;;;;2130779;27;20076;-43
2021/08/21 03:55:56;;;;;;;11.75;9.68;;;;;;;;;;2130693;27;20183;-44
2021/08/21 03:56:56;;;;;;;13.23;10.05;;;;;;;;;;2127902;27;20046;-45
2021/08/21 03:57:58;;;;;;;14.40;10.10;;;;;;;;;;2129873;27;20046;-44
2021/08/21 03:58:59;;;;;;;11.93;10.27;;;;;;;;;;2130929;27;20043;-45
2021/08/21 04:00:00;;;;;;;15.40;9.87;;;;;;;;;;2128519;27;20070;-45
2021/08/21 04:01:02;;;;;;;14.02;9.85;;;;;;;;;;2130508;27;20483;-46
2021/08/21 04:02:03;;;;;;;11.32;10.10;;;;;;;;;;2130817;27;20115;-46
2021/08/21 04:03:05;;;;;;;14.65;9.88;;;;;;;;;;2127270;27;20046;-46
2021/08/21 04:04:06;;;;;;;13.77;9.95;;;;;;;;;;2130931;27;20122;-46
2021/08/21 04:05:08;;;;;;;14.65;11.13;;;;;;;;;;2130773;27;20130;-47
2021/08/21 04:06:09;;;;;;;12.63;9.80;;;;;;;;;;2127436;27;20047;-46
2021/08/21 04:07:14;;;;;;;12.15;10.18;;;;;;;;;;2130372;27;20046;-46
2021/08/21 04:08:15;;;;;;;12.95;9.48;;;;;;;;;;2127579;27;20085;-46
2021/08/21 04:09:16;;;;;;;11.43;9.45;;;;;;;;;;2128113;27;20133;-46
2021/08/21 04:10:17;;;;;;;11.33;9.73;;;;;;;;;;2130816;27;20051;-46
2021/08/21 04:11:18;;;;;;;12.02;10.55;;;;;;;;;;2130337;27;20075;-46
2021/08/21 04:12:19;;;;;;;13.40;11.07;;;;;;;;;;2128684;27;20039;-46
2021/08/21 04:13:20;;;;;;;14.15;9.70;;;;;;;;;;2129904;27;20121;-48
2021/08/21 04:14:21;;;;;;;15.60;10.88;;;;;;;;;;2128757;27;20039;-46
2021/08/21 04:15:22;;;;;;;14.90;10.32;;;;;;;;;;2128233;27;20478;-46
2021/08/21 04:16:24;;;;;;;14.03;10.80;;;;;;;;;;2130734;27;20280;-46
2021/08/21 04:17:25;;;;;;;13.13;9.98;;;;;;;;;;2129809;27;20066;-46
2021/08/21 04:18:26;;;;;;;12.73;10.53;;;;;;;;;;2129153;27;20802;-47
2021/08/21 04:19:27;;;;;;;13.40;10.75;;;;;;;;;;2130809;27;20179;-48
2021/08/21 04:20:28;;;;;;;11.83;9.60;;;;;;;;;;2129582;27;20433;-46
2021/08/21 04:21:29;;;;;;;14.85;11.73;;;;;;;;;;2128266;27;20491;-46
2021/08/21 04:22:30;;;;;;;14.23;10.57;;;;;;;;;;2130569;27;20051;-46
2021/08/21 04:23:32;;;;;;;14.57;10.90;;;;;;;;;;2128939;27;20822;-46
2021/08/21 04:24:32;;;;;;;13.60;10.15;;;;;;;;;;2130459;27;20050;-46
2021/08/21 04:25:34;;;;;;;14.40;10.73;;;;;;;;;;2130672;27;20385;-46
2021/08/21 04:26:34;;;;;;;11.15;9.32;;;;;;;;;;2127605;27;20180;-46
2021/08/21 04:27:36;;;;;;;15.37;10.57;;;;;;;;;;2129572;27;20457;-46
2021/08/21 04:28:37;;;;;;;13.07;10.02;;;;;;;;;;2128067;27;20121;-47
2021/08/21 04:29:38;;;;;;;12.68;9.75;;;;;;;;;;2129345;27;20047;-46
2021/08/21 04:30:39;;;;;;;13.90;9.73;;;;;;;;;;2129335;27;20046;-46
2021/08/21 04:31:41;;;;;;;12.45;9.93;;;;;;;;;;2130676;27;20563;-47
2021/08/21 04:32:42;;;;;;;14.23;10.50;;;;;;;;;;2126794;27;20051;-47
2021/08/21 04:33:43;;;;;;;13.02;10.32;;;;;;;;;;2130317;27;20172;-46
2021/08/21 04:34:44;;;;;;;11.77;9.57;;;;;;;;;;2130683;27;20043;-47
2021/08/21 04:35:45;;;;;;;11.85;9.68;;;;;;;;;;2126105;27;20111;-47
2021/08/21 04:36:46;;;;;;;11.57;9.93;;;;;;;;;;2130730;27;20480;-47
2021/08/21 04:37:47;;;;;;;12.65;9.45;;;;;;;;;;2130792;27;20183;-46
2021/08/21 04:38:48;;;;;;;13.82;10.45;;;;;;;;;;2127033;27;20452;-47
2021/08/21 04:39:49;;;;;;;13.53;10.57;;;;;;;;;;2130866;27;20061;-46
2021/08/21 04:40:50;;;;;;;13.07;9.88;;;;;;;;;;2130163;27;20604;-46
2021/08/21 04:41:51;;;;;;;13.57;9.37;;;;;;;;;;2126446;27;20067;-46
2021/08/21 04:43:10;;;;;;;12.68;9.95;;;;;;;;;;2130628;27;20046;-46
2021/08/21 04:44:12;;;;;;;14.80;11.10;;;;;;;;;;2128658;27;20043;-46
2021/08/21 04:45:12;;;;;;;13.52;10.40;;;;;;;;;;2127924;27;20484;-46
2021/08/21 04:46:14;;;;;;;11.53;9.10;;;;;;;;;;2124153;27;20043;-47
2021/08/21 04:47:15;;;;;;;12.93;8.90;;;;;;;;;;2124339;27;20050;-47
2021/08/21 04:48:17;;;;;;;13.45;9.02;;;;;;;;;;2129960;27;20567;-46
2021/08/21 04:49:20;;;;;;;12.60;8.82;;;;;;;;;;2130702;27;20046;-46
2021/08/21 04:50:21;;;;;;;10.60;8.93;;;;;;;;;;2127221;27;20366;-46
2021/08/21 04:51:22;;;;;;;10.52;8.13;;;;;;;;;;2130524;27;20080;-46
2021/08/21 04:52:24;;;;;;;13.88;9.00;;;;;;;;;;2130556;27;20046;-46
2021/08/21 04:53:24;;;;;;;11.50;8.98;;;;;;;;;;2128723;27;20130;-46
2021/08/21 04:54:26;;;;;;;13.33;8.53;;;;;;;;;;2130885;27;20043;-46
2021/08/21 04:55:26;;;;;;;10.55;9.25;;;;;;;;;;2132085;27;20130;-46
2021/08/21 04:56:28;;;;;;;13.07;9.93;;;;;;;;;;2129621;27;20049;-47
2021/08/21 04:57:29;;;;;;;13.63;9.45;;;;;;;;;;2132240;27;20130;-47
2021/08/21 04:58:30;;;;;;;13.05;8.75;;;;;;;;;;2132121;27;20133;-47
2021/08/21 04:59:31;;;;;;;15.00;9.97;;;;;;;;;;2128017;27;20047;-47
2021/08/21 05:00:32;;;;;;;10.57;7.93;;;;;;;;;;2129293;27;20053;-47
2021/08/21 05:01:33;;;;;;;12.00;8.88;;;;;;;;;;2131877;27;20043;-47
2021/08/21 05:02:35;;;;;;;13.02;9.50;;;;;;;;;;2127140;27;20091;-47
2021/08/21 05:03:36;;;;;;;;;;;;;;;;;;2132295;27;20074;-46
2021/08/21 05:04:41;;;;;;;14.10;8.68;;;;;;;;;;2131450;27;19991;-47
2021/08/21 05:05:43;;;;;;;12.90;8.63;;;;;;;;;;2129541;27;20129;-47
2021/08/21 05:06:44;;;;;;;12.10;8.27;;;;;;;;;;2132030;27;20053;-47
2021/08/21 05:07:46;;;;;;;10.53;8.17;;;;;;;;;;2130672;27;20047;-46
2021/08/21 05:08:47;;;;;;;9.95;8.13;;;;;;;;;;2126313;27;20738;-46
2021/08/21 05:09:48;;;;;;;12.88;8.00;;;;;;;;;;2126212;27;20046;-47
2021/08/21 05:10:49;;;;;;;10.67;8.80;;;;;;;;;;2125599;27;20039;-48
2021/08/21 05:11:50;;;;;;;16.02;9.48;;;;;;;;;;2125124;27;20380;-47
2021/08/21 05:12:51;;;;;;;9.70;8.53;;;;;;;;;;2128925;27;20053;-47
2021/08/21 05:13:52;;;;;;;11.80;8.32;;;;;;;;;;2127087;27;20125;-50
2021/08/21 05:14:53;;;;;;;12.07;8.57;;;;;;;;;;2128888;27;20042;-48
2021/08/21 05:15:55;;;;;;;11.77;9.05;;;;;;;;;;2129397;27;20055;-47
2021/08/21 05:16:57;;;;;;;12.32;8.45;;;;;;;;;;2128782;27;20104;-49
2021/08/21 05:17:58;;;;;;;11.77;8.90;;;;;;;;;;2130706;27;20476;-47
2021/08/21 05:19:04;;;;;;;10.63;8.25;;;;;;;;;;2132284;27;20042;-50
2021/08/21 05:20:08;;;;;;;10.80;8.10;;;;;;;;;;2130044;27;20074;-47
2021/08/21 05:21:12;;;;;;;9.52;7.65;;;;;;;;;;2129367;27;20447;-47
2021/08/21 05:22:24;;;;;;;11.73;8.75;;;;;;;;;;2127523;27;20498;-47
2021/08/21 05:23:25;;;;;;;12.73;8.57;;;;;;;;;;2126487;27;20442;-47
2021/08/21 05:24:26;;;;;;;11.20;8.40;;;;;;;;;;2123226;27;20479;-47
2021/08/21 05:25:27;;;;;;;11.43;9.53;;;;;;;;;;2131371;27;20055;-47
2021/08/21 05:26:28;;;;;;;11.80;8.45;;;;;;;;;;2127139;27;20403;-46
2021/08/21 05:27:30;;;;;;;14.30;7.60;;;;;;;;;;2123776;28;20051;-46
2021/08/21 05:28:31;;;;;;;8.55;7.18;;;;;;;;;;2124553;27;20122;-47
2021/08/21 05:29:32;;;;;;;14.05;8.13;;;;;;;;;;2130036;27;20074;-48
2021/08/21 05:30:33;;;;;;;9.87;7.93;;;;;;;;;;2132083;27;20432;-47
2021/08/21 05:31:34;;;;;;;9.68;8.05;;;;;;;;;;2130292;27;20042;-47
2021/08/21 05:32:36;;;;;;;11.02;7.95;;;;;;;;;;2129512;27;20043;-46
2021/08/21 05:33:38;;;;;;;13.48;8.13;;;;;;;;;;2132250;27;20138;-47
2021/08/21 05:34:38;;;;;;;;;;;;;;;;;;2130761;27;20046;-47
2021/08/21 05:35:40;;;;;;;11.63;7.78;;;;;;;;;;2130388;27;20272;-47
2021/08/21 05:36:41;;;;;;;;;;;;;;;;;;2132669;27;20050;-47
2021/08/21 05:37:42;;;;;;;11.23;7.60;;;;;;;;;;2129960;27;19927;-46
2021/08/21 05:38:43;;;;;;;10.80;7.90;;;;;;;;;;2126008;27;20092;-47
2021/08/21 05:39:44;;;;;;;12.95;8.25;;;;;;;;;;2123666;28;20130;-47
2021/08/21 05:40:45;;;;;;;12.80;7.90;;;;;;;;;;2125241;27;20051;-47
2021/08/21 05:41:46;;;;;;;11.52;7.45;;;;;;;;;;2129606;27;20137;-48
2021/08/21 05:42:47;;;;;;;12.60;7.60;;;;;;;;;;2123315;28;20385;-46
2021/08/21 05:43:48;;;;;;;9.63;7.32;;;;;;;;;;2126154;27;20095;-47
2021/08/21 05:44:50;;;;;;;9.27;7.20;;;;;;;;;;2131010;27;20483;-46
2021/08/21 05:45:51;;;;;;;11.00;7.38;;;;;;;;;;2132262;27;20049;-47
2021/08/21 05:46:52;;;;;;;9.00;6.97;;;;;;;;;;2126874;27;20051;-48
2021/08/21 05:47:54;;;;;;;8.13;7.32;;;;;;;;;;2131752;27;20053;-47
2021/08/21 05:48:56;;;;;;;10.32;7.03;;;;;;;;;;2132135;27;20476;-47
2021/08/21 05:50:01;;;;;;;;;;;;;;;;;;2128037;27;20047;-48
2021/08/21 05:51:02;;;;;;;9.55;6.60;;;;;;;;;;2131929;27;20412;-47
2021/08/21 05:52:03;;;;;;;9.60;6.75;;;;;;;;;;2131756;27;20039;-47
2021/08/21 05:53:04;;;;;;;10.18;6.60;;;;;;;;;;2126380;27;20047;-47
2021/08/21 05:54:06;;;;;;;7.78;6.15;;;;;;;;;;2132132;27;20075;-49
2021/08/21 05:55:07;;;;;;;7.70;6.53;;;;;;;;;;2131691;27;20126;-47
2021/08/21 05:56:08;;;;;;;11.20;7.28;;;;;;;;;;2127849;27;20549;-47
2021/08/21 05:57:09;;;;;;;11.82;7.00;;;;;;;;;;2132120;27;20487;-47
2021/08/21 05:58:10;;;;;;;10.87;6.70;;;;;;;;;;2131165;27;20138;-47
2021/08/21 05:59:11;;;;;;;9.77;7.28;;;;;;;;;;2127660;27;20047;-47
2021/08/21 06:00:12;;;;;;;8.47;6.60;;;;;;;;;;2132080;27;20501;-48
2021/08/21 06:01:13;;;;;;;;;;;;;;;;;;2130948;27;20074;-47
2021/08/21 06:02:14;;;;;;;8.70;6.85;;;;;;;;;;2128185;27;19919;-48
2021/08/21 06:03:16;;;;;;;11.00;6.15;;;;;;;;;;2131269;27;20129;-47
2021/08/21 06:04:18;;;;;;;14.35;6.68;;;;;;;;;;2129416;27;20617;-47